createdAt,value
2018-08-18T00:00:35.428Z,21.70
2018-08-18T00:03:05.769Z,21.60
2018-08-18T00:05:35.300Z,21.50
2018-08-18T00:08:05.388Z,21.60
2018-08-18T00:10:35.048Z,21.50
2018-08-18T00:13:04.768Z,21.50
2018-08-18T00:15:34.668Z,21.40
2018-08-18T00:18:04.280Z,21.40
2018-08-18T00:20:34.208Z,21.30
2018-08-18T00:23:03.948Z,21.40
2018-08-18T00:25:33.549Z,21.40
2018-08-18T00:28:25.207Z,21.30
2018-08-18T00:30:54.928Z,21.20
2018-08-18T00:33:24.748Z,21.20
2018-08-18T00:35:54.608Z,21.10
2018-08-18T00:38:24.128Z,21.10
2018-08-18T00:40:55.088Z,21.10
2018-08-18T00:43:24.608Z,21.00
2018-08-18T00:45:54.447Z,21.00
2018-08-18T00:48:24.150Z,20.90
2018-08-18T00:50:53.848Z,20.90
2018-08-18T00:53:23.307Z,20.80
2018-08-18T00:55:52.748Z,20.80
2018-08-18T00:58:26.669Z,20.70
2018-08-18T01:01:02.287Z,20.70
2018-08-18T01:03:39.827Z,20.70
2018-08-18T01:06:18.689Z,20.70
2018-08-18T01:08:51.408Z,20.70
2018-08-18T01:11:21.130Z,20.80
2018-08-18T01:13:51.290Z,20.80
2018-08-18T01:16:21.088Z,20.80
2018-08-18T01:18:52.687Z,20.80
2018-08-18T01:21:23.786Z,20.70
2018-08-18T01:23:53.876Z,20.70
2018-08-18T01:26:23.459Z,20.60
2018-08-18T01:28:54.528Z,20.50
2018-08-18T01:31:24.908Z,20.50
2018-08-18T01:33:54.340Z,20.40
2018-08-18T01:36:23.748Z,20.50
2018-08-18T01:38:53.328Z,20.40
2018-08-18T01:41:24.528Z,20.50
2018-08-18T01:44:25.253Z,20.40
2018-08-18T01:46:55.088Z,20.40
2018-08-18T01:49:33.908Z,20.40
2018-08-18T01:52:10.651Z,20.40
2018-08-18T01:54:40.508Z,20.40
2018-08-18T01:57:10.768Z,20.40
2018-08-18T01:59:44.549Z,20.30
2018-08-18T02:02:22.287Z,20.40
2018-08-18T02:04:52.149Z,20.30
2018-08-18T02:07:27.888Z,20.30
2018-08-18T02:09:57.568Z,20.40
2018-08-18T02:12:27.770Z,20.20
2018-08-18T02:14:58.768Z,20.10
2018-08-18T02:17:37.688Z,20.20
2018-08-18T02:20:09.581Z,20.20
2018-08-18T02:22:39.108Z,20.20
2018-08-18T02:25:08.608Z,20.30
2018-08-18T02:27:39.048Z,20.30
2018-08-18T02:32:55.589Z,20.50
2018-08-18T02:35:25.408Z,20.40
2018-08-18T02:37:54.865Z,20.50
2018-08-18T02:40:24.388Z,20.40
2018-08-18T02:42:53.929Z,20.50
2018-08-18T02:45:23.531Z,20.40
2018-08-18T02:48:10.028Z,20.30
2018-08-18T02:50:44.228Z,20.20
2018-08-18T02:53:26.629Z,20.10
2018-08-18T02:55:56.728Z,20.10
2018-08-18T02:58:26.508Z,20.10
2018-08-18T03:00:56.055Z,20.20
2018-08-18T03:03:25.568Z,20.30
2018-08-18T03:05:59.548Z,20.20
2018-08-18T03:08:30.109Z,20.20
2018-08-18T03:10:59.668Z,20.20
2018-08-18T03:13:29.068Z,20.20
2018-08-18T03:15:59.789Z,20.30
2018-08-18T03:18:48.408Z,20.20
2018-08-18T03:21:18.928Z,20.40
2018-08-18T03:24:06.829Z,20.30
2018-08-18T03:26:39.948Z,20.30
2018-08-18T03:29:09.637Z,20.30
2018-08-18T03:31:40.288Z,20.20
2018-08-18T03:34:10.527Z,20.20
2018-08-18T03:36:42.247Z,20.30
2018-08-18T03:39:28.449Z,20.30
2018-08-18T03:41:59.468Z,20.30
2018-08-18T03:44:28.948Z,20.30
2018-08-18T03:46:58.368Z,20.20
2018-08-18T03:49:27.728Z,20.20
2018-08-18T03:51:57.128Z,20.10
2018-08-18T03:54:26.715Z,20.00
2018-08-18T03:56:56.223Z,20.10
2018-08-18T03:59:25.708Z,20.00
2018-08-18T04:01:56.250Z,20.00
2018-08-18T04:04:26.991Z,20.20
2018-08-18T04:06:57.548Z,20.30
2018-08-18T04:09:42.108Z,20.10
2018-08-18T04:12:11.668Z,20.00
2018-08-18T04:14:43.200Z,20.00
2018-08-18T04:17:28.888Z,20.00
2018-08-18T04:19:58.568Z,20.00
2018-08-18T04:22:28.048Z,20.00
2018-08-18T04:24:57.570Z,20.00
2018-08-18T04:27:39.728Z,20.00
2018-08-18T04:30:12.108Z,20.20
2018-08-18T04:32:54.768Z,20.50
2018-08-18T04:35:26.514Z,20.60
2018-08-18T04:37:56.988Z,20.70
2018-08-18T04:40:26.720Z,20.70
2018-08-18T04:42:58.268Z,20.90
2018-08-18T04:45:28.010Z,21.10
2018-08-18T04:47:57.429Z,21.40
2018-08-18T04:50:26.949Z,22.10
2018-08-18T04:52:56.468Z,22.80
2018-08-18T04:55:26.008Z,23.30
2018-08-18T04:57:55.580Z,23.40
2018-08-18T05:00:28.036Z,23.20
2018-08-18T05:02:58.732Z,23.00
2018-08-18T05:05:30.549Z,22.80
2018-08-18T05:08:01.469Z,22.70
2018-08-18T05:10:31.012Z,22.50
2018-08-18T05:13:00.528Z,22.50
2018-08-18T05:15:29.948Z,22.20
2018-08-18T05:17:59.468Z,22.10
2018-08-18T05:20:29.049Z,22.00
2018-08-18T05:23:18.330Z,22.00
2018-08-18T05:25:48.808Z,21.80
2018-08-18T05:28:18.328Z,21.80
2018-08-18T05:30:52.809Z,21.90
2018-08-18T05:33:23.090Z,22.10
2018-08-18T05:35:52.708Z,22.40
2018-08-18T05:38:22.621Z,23.40
2018-08-18T05:40:52.212Z,24.60
2018-08-18T05:43:21.808Z,25.60
2018-08-18T05:45:51.428Z,26.30
2018-08-18T05:48:21.088Z,26.80
2018-08-18T05:50:50.849Z,27.20
2018-08-18T05:53:21.847Z,27.20
2018-08-18T05:55:51.548Z,26.80
2018-08-18T05:58:21.228Z,26.00
2018-08-18T06:00:56.287Z,25.70
2018-08-18T06:03:26.048Z,25.10
2018-08-18T06:05:57.488Z,24.80
2018-08-18T06:08:27.268Z,24.60
2018-08-18T06:10:57.128Z,24.50
2018-08-18T06:13:27.028Z,24.40
2018-08-18T06:16:10.068Z,24.20
2018-08-18T06:18:40.480Z,24.30
2018-08-18T06:21:10.249Z,24.10
2018-08-18T06:23:39.847Z,24.50
2018-08-18T06:26:09.693Z,24.70
2018-08-18T06:28:39.228Z,24.50
2018-08-18T06:31:08.908Z,24.80
2018-08-18T06:33:38.648Z,24.70
2018-08-18T06:36:08.151Z,25.00
2018-08-18T06:38:37.757Z,25.00
2018-08-18T06:41:07.549Z,25.10
2018-08-18T06:43:37.171Z,25.10
2018-08-18T06:46:06.828Z,25.30
2018-08-18T06:48:37.109Z,25.40
2018-08-18T06:51:07.428Z,25.60
2018-08-18T06:53:42.630Z,25.80
2018-08-18T06:56:12.568Z,25.80
2018-08-18T06:58:42.128Z,26.00
2018-08-18T07:01:11.728Z,25.80
2018-08-18T07:03:43.728Z,25.70
2018-08-18T07:06:14.888Z,25.80
2018-08-18T07:08:49.765Z,26.00
2018-08-18T07:11:19.652Z,26.20
2018-08-18T07:13:49.722Z,26.30
2018-08-18T07:16:19.488Z,26.60
2018-08-18T07:18:49.110Z,26.80
2018-08-18T07:21:18.688Z,26.80
2018-08-18T07:23:48.383Z,26.80
2018-08-18T07:26:18.008Z,26.90
2018-08-18T07:28:47.471Z,27.10
2018-08-18T07:31:17.153Z,27.30
2018-08-18T07:33:46.549Z,27.10
2018-08-18T07:36:16.151Z,27.50
2018-08-18T07:38:45.608Z,27.80
2018-08-18T07:41:15.127Z,28.10
2018-08-18T07:43:44.688Z,27.90
2018-08-18T07:46:14.327Z,27.90
2018-08-18T07:48:43.791Z,27.90
2018-08-18T07:51:13.411Z,28.10
2018-08-18T07:53:42.951Z,28.10
2018-08-18T07:56:12.551Z,28.40
2018-08-18T07:58:42.071Z,28.50
2018-08-18T08:01:11.556Z,28.50
2018-08-18T08:03:41.657Z,28.60
2018-08-18T08:06:11.416Z,28.70
2018-08-18T08:08:46.263Z,28.40
2018-08-18T08:11:15.957Z,28.40
2018-08-18T08:13:45.526Z,28.70
2018-08-18T08:16:15.148Z,28.70
2018-08-18T08:18:44.746Z,28.80
2018-08-18T08:21:14.529Z,29.00
2018-08-18T08:23:44.345Z,29.00
2018-08-18T08:26:14.189Z,29.10
2018-08-18T08:28:44.250Z,29.00
2018-08-18T08:31:14.009Z,29.30
2018-08-18T08:33:58.469Z,29.30
2018-08-18T08:36:27.990Z,29.10
2018-08-18T08:39:00.029Z,29.40
2018-08-18T08:41:31.789Z,29.50
2018-08-18T08:44:01.809Z,29.60
2018-08-18T08:46:31.359Z,29.80
2018-08-18T08:49:01.812Z,29.80
2018-08-18T08:51:31.378Z,29.50
2018-08-18T08:54:00.988Z,29.90
2018-08-18T08:56:38.287Z,30.10
2018-08-18T08:59:08.467Z,30.00
2018-08-18T09:01:38.103Z,30.30
2018-08-18T09:04:07.993Z,30.40
2018-08-18T09:06:41.927Z,30.40
2018-08-18T09:09:11.687Z,30.50
2018-08-18T09:11:41.248Z,30.80
2018-08-18T09:14:11.107Z,30.80
2018-08-18T09:16:40.807Z,30.80
2018-08-18T09:19:10.566Z,30.70
2018-08-18T09:21:49.712Z,30.80
2018-08-18T09:24:20.368Z,31.20
2018-08-18T09:26:51.894Z,31.30
2018-08-18T09:29:22.580Z,31.20
2018-08-18T09:31:52.307Z,31.00
2018-08-18T09:34:21.997Z,31.50
2018-08-18T09:36:51.518Z,31.30
2018-08-18T09:39:33.702Z,31.30
2018-08-18T09:42:06.861Z,31.60
2018-08-18T09:44:40.448Z,31.70
2018-08-18T09:47:10.468Z,31.70
2018-08-18T09:49:40.488Z,31.70
2018-08-18T09:52:13.868Z,32.00
2018-08-18T09:54:43.866Z,32.00
2018-08-18T09:57:13.646Z,32.00
2018-08-18T09:59:43.453Z,32.10
2018-08-18T10:02:14.735Z,32.00
2018-08-18T10:04:44.375Z,32.00
2018-08-18T10:07:14.034Z,32.00
2018-08-18T10:09:43.654Z,32.10
2018-08-18T10:12:13.354Z,32.20
2018-08-18T10:14:43.173Z,32.60
2018-08-18T10:17:13.189Z,32.80
2018-08-18T10:19:43.247Z,32.90
2018-08-18T10:22:13.448Z,32.70
2018-08-18T10:24:43.090Z,32.50
2018-08-18T10:27:13.037Z,32.80
2018-08-18T10:29:42.644Z,32.50
2018-08-18T10:32:12.449Z,32.80
2018-08-18T10:34:41.969Z,32.80
2018-08-18T10:37:11.710Z,32.70
2018-08-18T10:39:41.573Z,32.80
2018-08-18T10:42:20.835Z,32.90
2018-08-18T10:44:55.860Z,33.00
2018-08-18T10:47:25.339Z,32.90
2018-08-18T10:50:11.019Z,33.00
2018-08-18T10:52:58.059Z,33.20
2018-08-18T10:55:28.099Z,33.20
2018-08-18T10:58:04.034Z,33.50
2018-08-18T11:00:34.861Z,33.50
2018-08-18T11:03:05.937Z,33.40
2018-08-18T11:05:35.480Z,33.70
2018-08-18T11:08:06.703Z,33.50
2018-08-18T11:10:39.148Z,33.70
2018-08-18T11:13:08.916Z,33.70
2018-08-18T11:15:38.416Z,33.50
2018-08-18T11:18:07.996Z,33.80
2018-08-18T11:20:37.596Z,34.10
2018-08-18T11:23:13.417Z,33.90
2018-08-18T11:25:48.352Z,34.10
2018-08-18T11:28:18.874Z,34.00
2018-08-18T11:30:50.657Z,34.10
2018-08-18T11:33:43.419Z,34.40
2018-08-18T11:36:13.120Z,34.30
2018-08-18T11:38:42.814Z,34.30
2018-08-18T11:41:12.871Z,34.70
2018-08-18T11:43:47.848Z,34.80
2018-08-18T11:46:17.728Z,34.60
2018-08-18T11:48:47.407Z,34.90
2018-08-18T11:51:17.286Z,34.90
2018-08-18T11:53:59.368Z,34.40
2018-08-18T11:56:29.000Z,34.40
2018-08-18T11:59:07.846Z,34.00
2018-08-18T12:01:39.650Z,34.40
2018-08-18T12:04:09.477Z,34.30
2018-08-18T12:06:58.869Z,34.60
2018-08-18T12:09:28.854Z,35.10
2018-08-18T12:11:58.589Z,35.00
2018-08-18T12:14:28.333Z,35.30
2018-08-18T12:16:58.258Z,35.20
2018-08-18T12:19:27.735Z,35.00
2018-08-18T12:21:57.589Z,34.90
2018-08-18T12:24:27.203Z,35.10
2018-08-18T12:27:10.869Z,35.10
2018-08-18T12:29:40.555Z,35.00
2018-08-18T12:32:15.889Z,35.30
2018-08-18T12:34:45.429Z,35.60
2018-08-18T12:37:15.089Z,35.50
2018-08-18T12:39:44.709Z,35.60
2018-08-18T12:42:18.669Z,35.50
2018-08-18T12:44:48.325Z,35.40
2018-08-18T12:47:18.025Z,35.60
2018-08-18T12:49:47.661Z,35.60
2018-08-18T12:52:17.330Z,35.80
2018-08-18T12:54:46.929Z,35.90
2018-08-18T12:57:31.748Z,36.00
2018-08-18T13:00:01.313Z,35.40
2018-08-18T13:02:46.161Z,35.50
2018-08-18T13:05:16.413Z,35.50
2018-08-18T13:07:46.174Z,35.60
2018-08-18T13:10:23.354Z,35.70
2018-08-18T13:12:54.094Z,35.70
2018-08-18T13:15:23.874Z,35.60
2018-08-18T13:17:53.587Z,35.60
2018-08-18T13:20:25.654Z,35.80
2018-08-18T13:22:55.274Z,36.00
2018-08-18T13:25:25.148Z,36.30
2018-08-18T13:27:57.851Z,36.20
2018-08-18T13:30:28.628Z,36.10
2018-08-18T13:32:59.109Z,35.80
2018-08-18T13:35:28.685Z,36.20
2018-08-18T13:37:58.352Z,36.20
2018-08-18T13:40:28.605Z,36.20
2018-08-18T13:42:58.304Z,36.10
2018-08-18T13:45:45.557Z,36.20
2018-08-18T13:48:15.185Z,36.30
2018-08-18T13:50:45.103Z,36.50
2018-08-18T13:53:14.667Z,36.20
2018-08-18T13:55:44.403Z,36.00
2018-08-18T13:58:13.980Z,36.40
2018-08-18T14:00:43.833Z,36.40
2018-08-18T14:03:27.839Z,36.30
2018-08-18T14:05:57.441Z,36.50
2018-08-18T14:08:27.103Z,36.30
2018-08-18T14:10:56.614Z,36.60
2018-08-18T14:13:26.485Z,36.50
2018-08-18T14:15:57.825Z,36.40
2018-08-18T14:18:27.446Z,36.70
2018-08-18T14:21:06.366Z,36.90
2018-08-18T14:23:35.966Z,36.50
2018-08-18T14:26:05.694Z,36.60
2018-08-18T14:28:35.500Z,36.70
2018-08-18T14:31:05.245Z,36.70
2018-08-18T14:33:34.941Z,36.70
2018-08-18T14:36:10.252Z,36.60
2018-08-18T14:38:40.351Z,36.70
2018-08-18T14:41:10.031Z,36.70
2018-08-18T14:43:40.712Z,36.90
2018-08-18T14:46:14.875Z,36.90
2018-08-18T14:48:44.551Z,36.90
2018-08-18T14:51:14.111Z,36.80
2018-08-18T14:53:43.609Z,36.70
2018-08-18T14:56:13.231Z,36.80
2018-08-18T14:58:44.311Z,36.80
2018-08-18T15:01:14.852Z,36.70
2018-08-18T15:03:44.417Z,36.70
2018-08-18T15:06:14.104Z,36.50
2018-08-18T15:08:44.004Z,36.70
2018-08-18T15:11:13.629Z,36.70
2018-08-18T15:13:43.097Z,36.70
2018-08-18T15:16:12.888Z,36.60
2018-08-18T15:18:42.727Z,36.70
2018-08-18T15:21:12.503Z,36.60
2018-08-18T15:23:42.040Z,36.50
2018-08-18T15:26:11.708Z,36.80
2018-08-18T15:28:41.095Z,36.80
2018-08-18T15:31:10.678Z,37.00
2018-08-18T15:33:40.118Z,37.10
2018-08-18T15:36:25.838Z,37.20
2018-08-18T15:38:55.717Z,36.90
2018-08-18T15:41:25.576Z,37.20
2018-08-18T15:43:55.295Z,37.10
2018-08-18T15:46:24.911Z,36.60
2018-08-18T15:48:54.425Z,36.40
2018-08-18T15:51:24.005Z,36.40
2018-08-18T15:53:55.221Z,36.10
2018-08-18T15:56:25.646Z,36.40
2018-08-18T15:58:55.885Z,35.70
2018-08-18T16:01:28.030Z,35.30
2018-08-18T16:04:00.210Z,35.40
2018-08-18T16:06:29.768Z,35.20
2018-08-18T16:08:59.250Z,35.50
2018-08-18T16:11:28.805Z,35.30
2018-08-18T16:13:58.359Z,35.10
2018-08-18T16:16:27.994Z,35.20
2018-08-18T16:19:04.172Z,34.90
2018-08-18T16:21:34.830Z,35.30
2018-08-18T16:24:04.624Z,35.50
2018-08-18T16:26:34.227Z,35.70
2018-08-18T16:29:03.862Z,35.70
2018-08-18T16:31:33.437Z,36.00
2018-08-18T16:34:02.993Z,36.20
2018-08-18T16:36:52.127Z,36.40
2018-08-18T16:39:21.707Z,36.50
2018-08-18T16:41:51.268Z,36.50
2018-08-18T16:44:20.688Z,36.50
2018-08-18T16:46:50.318Z,36.50
2018-08-18T16:49:20.109Z,36.40
2018-08-18T16:51:54.656Z,36.30
2018-08-18T16:54:24.640Z,36.10
2018-08-18T16:56:54.239Z,35.90
2018-08-18T16:59:23.768Z,35.90
2018-08-18T17:01:53.340Z,35.80
2018-08-18T17:04:38.141Z,35.60
2018-08-18T17:07:14.320Z,35.40
2018-08-18T17:09:44.279Z,35.20
2018-08-18T17:12:22.579Z,35.20
2018-08-18T17:14:52.587Z,35.00
2018-08-18T17:17:25.139Z,34.80
2018-08-18T17:19:54.712Z,34.70
2018-08-18T17:22:24.298Z,34.60
2018-08-18T17:24:53.831Z,34.60
2018-08-18T17:27:23.532Z,34.60
2018-08-18T17:29:53.091Z,34.50
2018-08-18T17:32:25.150Z,34.60
2018-08-18T17:34:54.907Z,34.50
2018-08-18T17:37:24.752Z,34.30
2018-08-18T17:39:54.258Z,34.00
2018-08-18T17:42:24.010Z,33.60
2018-08-18T17:44:54.248Z,33.30
2018-08-18T17:47:23.927Z,33.00
2018-08-18T17:49:56.072Z,32.80
2018-08-18T17:52:26.547Z,32.60
2018-08-18T17:55:21.867Z,32.40
2018-08-18T17:57:51.798Z,32.00
2018-08-18T18:00:23.300Z,31.80
2018-08-18T18:02:56.057Z,31.50
2018-08-18T18:05:28.750Z,31.20
2018-08-18T18:08:02.155Z,30.90
2018-08-18T18:10:33.652Z,30.70
2018-08-18T18:13:11.153Z,30.40
2018-08-18T18:15:41.217Z,30.10
2018-08-18T18:18:14.056Z,29.80
2018-08-18T18:20:48.751Z,29.50
2018-08-18T18:23:18.913Z,29.30
2018-08-18T18:25:48.511Z,29.10
2018-08-18T18:28:18.252Z,28.80
2018-08-18T18:30:50.714Z,28.70
2018-08-18T18:33:20.722Z,28.50
2018-08-18T18:35:50.951Z,28.30
2018-08-18T18:38:20.451Z,28.20
2018-08-18T18:40:49.932Z,28.10
2018-08-18T18:43:19.672Z,27.90
2018-08-18T18:45:49.469Z,27.80
2018-08-18T18:48:18.931Z,27.70
2018-08-18T18:50:49.447Z,27.60
2018-08-18T18:53:19.147Z,27.40
2018-08-18T18:55:53.535Z,27.30
2018-08-18T18:58:23.272Z,27.10
2018-08-18T19:01:00.228Z,27.00
2018-08-18T19:03:29.932Z,26.90
2018-08-18T19:05:59.590Z,27.00
2018-08-18T19:08:29.340Z,26.80
2018-08-18T19:11:01.872Z,26.70
2018-08-18T19:13:31.512Z,26.60
2018-08-18T19:16:01.078Z,26.60
2018-08-18T19:18:30.793Z,26.50
2018-08-18T19:21:00.272Z,26.40
2018-08-18T19:23:33.472Z,26.40
2018-08-18T19:26:02.974Z,26.20
2018-08-18T19:28:32.750Z,26.10
2018-08-18T19:31:02.292Z,26.00
2018-08-18T19:33:31.852Z,26.10
2018-08-18T19:36:01.392Z,26.00
2018-08-18T19:38:30.994Z,25.90
2018-08-18T19:41:00.589Z,25.80
2018-08-18T19:43:30.154Z,25.70
2018-08-18T19:45:59.672Z,25.80
2018-08-18T19:48:29.232Z,25.70
2018-08-18T19:51:02.711Z,25.60
2018-08-18T19:53:33.671Z,25.60
2018-08-18T19:56:03.911Z,25.50
2018-08-18T19:58:33.572Z,25.50
2018-08-18T20:01:03.212Z,25.40
2018-08-18T20:03:32.766Z,25.30
2018-08-18T20:06:07.404Z,25.20
2018-08-18T20:08:37.202Z,25.30
2018-08-18T20:11:06.783Z,25.20
2018-08-18T20:13:36.352Z,25.10
2018-08-18T20:16:06.176Z,25.00
2018-08-18T20:18:35.825Z,24.90
2018-08-18T20:21:05.652Z,24.90
2018-08-18T20:23:35.188Z,24.80
2018-08-18T20:26:04.993Z,24.70
2018-08-18T20:28:34.652Z,24.90
2018-08-18T20:31:04.233Z,24.80
2018-08-18T20:33:33.891Z,24.60
2018-08-18T20:36:03.491Z,24.50
2018-08-18T20:38:38.632Z,24.50
2018-08-18T20:41:08.274Z,24.40
2018-08-18T20:43:37.912Z,24.40
2018-08-18T20:46:07.987Z,24.30
2018-08-18T20:48:37.807Z,24.30
2018-08-18T20:51:07.652Z,24.20
2018-08-18T20:53:37.437Z,24.20
2018-08-18T20:56:07.492Z,24.20
2018-08-18T20:58:37.010Z,24.10
2018-08-18T21:01:06.552Z,24.10
2018-08-18T21:03:49.832Z,24.00
2018-08-18T21:06:19.788Z,23.90
2018-08-18T21:08:49.772Z,23.90
2018-08-18T21:11:19.712Z,23.80
2018-08-18T21:13:50.652Z,23.80
2018-08-18T21:16:21.152Z,23.80
2018-08-18T21:18:50.992Z,23.70
2018-08-18T21:21:29.612Z,23.70
2018-08-18T21:23:59.272Z,23.70
2018-08-18T21:26:29.208Z,23.70
2018-08-18T21:28:58.992Z,23.60
2018-08-18T21:31:35.772Z,23.60
2018-08-18T21:34:06.832Z,23.70
2018-08-18T21:36:36.612Z,23.70
2018-08-18T21:39:09.572Z,23.60
2018-08-18T21:41:44.193Z,23.50
2018-08-18T21:44:14.672Z,23.50
2018-08-18T21:46:44.313Z,23.40
2018-08-18T21:49:14.132Z,23.40
2018-08-18T21:51:43.742Z,23.50
2018-08-18T21:54:13.312Z,23.40
2018-08-18T21:56:43.232Z,23.50
2018-08-18T21:59:13.942Z,23.60
2018-08-18T22:01:44.236Z,23.60
2018-08-18T22:04:14.313Z,23.50
2018-08-18T22:06:44.273Z,23.40
2018-08-18T22:09:33.138Z,23.60
2018-08-18T22:12:02.780Z,23.50
2018-08-18T22:14:32.580Z,23.60
2018-08-18T22:17:02.180Z,23.50
2018-08-18T22:19:31.900Z,23.50
2018-08-18T22:22:01.841Z,23.50
2018-08-18T22:24:31.377Z,23.40
2018-08-18T22:27:00.940Z,23.40
2018-08-18T22:29:30.840Z,23.50
2018-08-18T22:32:03.161Z,23.50
2018-08-18T22:34:33.041Z,23.50
2018-08-18T22:37:09.484Z,23.60
2018-08-18T22:39:39.020Z,23.50
2018-08-18T22:42:08.940Z,23.40
2018-08-18T22:44:38.560Z,23.30
2018-08-18T22:47:08.480Z,23.30
2018-08-18T22:49:38.360Z,23.20
2018-08-18T22:52:08.200Z,23.10
2018-08-18T22:54:38.221Z,23.10
2018-08-18T22:57:07.901Z,23.00
2018-08-18T22:59:37.764Z,23.00
2018-08-18T23:02:07.340Z,23.10
2018-08-18T23:04:38.237Z,23.20
2018-08-18T23:07:08.423Z,22.90
2018-08-18T23:09:37.980Z,22.90
2018-08-18T23:12:08.820Z,22.80
2018-08-18T23:14:39.341Z,22.70
2018-08-18T23:17:11.520Z,22.70
2018-08-18T23:19:41.092Z,22.50
2018-08-18T23:22:26.920Z,22.40
2018-08-18T23:24:56.421Z,22.30
2018-08-18T23:27:27.380Z,22.10
2018-08-18T23:29:57.372Z,22.10
2018-08-18T23:32:27.040Z,22.10
2018-08-18T23:34:57.757Z,22.10
2018-08-18T23:37:27.401Z,22.10
2018-08-18T23:39:57.243Z,22.00
2018-08-18T23:42:27.385Z,22.10
2018-08-18T23:44:56.900Z,22.00
2018-08-18T23:47:26.404Z,22.10
2018-08-18T23:49:56.106Z,22.10
2018-08-18T23:52:25.880Z,22.00
2018-08-18T23:54:55.772Z,21.90
2018-08-18T23:57:25.320Z,21.90
2018-08-18T23:59:54.820Z,22.00
